Barb, Ohio
Current Conditions -  °F | °C
As of 7:54 AM on Thursday 23 Oct 2014 (Local Time) from KAKR Reporting Station
Broken Clouds Broken Clouds  
Wind Chill: 44°   Ceiling: 1500
Heat Index: 46°   Visibility: 10mi
Dew Point: 44°   Wind: 5mph
Humidity: 93%   Direction: 10°N
Pressure: 30.18"   Gusts: NA
Location:  41.0203°N, 81.628°W
Report Text: KAKR 231154Z AUTO 01004KT 10SM BKN015 08/07 A3018 RMK AO2 SLP224 T00780067 10100 20072 51001
Loading
Personal Weather Stations






























Interactive Weather Map
Tropical Storm Tracking
New forecast layout! Learn more

10-Day Weather Forecast

Advertisements
Track Severe Weather on mobile